sensor_id;sensor_type;location;lat;lon;timestamp;temperature;humidity
32815;DHT22;19165;48.182;16.374;2022-07-29T00:01:31;26.10;40.80
32815;DHT22;19165;48.182;16.374;2022-07-29T00:03:57;26.10;40.90
32815;DHT22;19165;48.182;16.374;2022-07-29T00:06:22;26.10;40.90
32815;DHT22;19165;48.182;16.374;2022-07-29T00:08:48;26.10;41.00
32815;DHT22;19165;48.182;16.374;2022-07-29T00:11:14;26.10;41.10
32815;DHT22;19165;48.182;16.374;2022-07-29T00:13:41;26.10;41.10
32815;DHT22;19165;48.182;16.374;2022-07-29T00:16:07;26.10;41.20
32815;DHT22;19165;48.182;16.374;2022-07-29T00:18:33;26.00;41.20
32815;DHT22;19165;48.182;16.374;2022-07-29T00:21:00;26.00;41.30
32815;DHT22;19165;48.182;16.374;2022-07-29T00:23:26;26.00;41.40
32815;DHT22;19165;48.182;16.374;2022-07-29T00:25:51;26.00;41.30
32815;DHT22;19165;48.182;16.374;2022-07-29T00:28:17;26.00;41.50
32815;DHT22;19165;48.182;16.374;2022-07-29T00:30:45;26.00;41.60
32815;DHT22;19165;48.182;16.374;2022-07-29T00:33:11;26.00;41.70
32815;DHT22;19165;48.182;16.374;2022-07-29T00:35:37;25.90;41.70
32815;DHT22;19165;48.182;16.374;2022-07-29T00:38:13;25.90;41.80
32815;DHT22;19165;48.182;16.374;2022-07-29T00:40:40;25.80;41.90
32815;DHT22;19165;48.182;16.374;2022-07-29T00:43:06;25.80;42.10
32815;DHT22;19165;48.182;16.374;2022-07-29T00:45:32;25.80;42.20
32815;DHT22;19165;48.182;16.374;2022-07-29T00:48:00;25.70;42.20
32815;DHT22;19165;48.182;16.374;2022-07-29T00:50:26;25.70;42.20
32815;DHT22;19165;48.182;16.374;2022-07-29T00:52:53;25.70;42.30
32815;DHT22;19165;48.182;16.374;2022-07-29T00:55:19;25.60;43.00
32815;DHT22;19165;48.182;16.374;2022-07-29T00:57:45;25.60;42.60
32815;DHT22;19165;48.182;16.374;2022-07-29T01:00:13;25.60;42.40
32815;DHT22;19165;48.182;16.374;2022-07-29T01:02:40;25.50;42.50
32815;DHT22;19165;48.182;16.374;2022-07-29T01:05:07;25.30;42.70
32815;DHT22;19165;48.182;16.374;2022-07-29T01:07:34;25.10;43.10
32815;DHT22;19165;48.182;16.374;2022-07-29T01:10:01;25.00;43.50
32815;DHT22;19165;48.182;16.374;2022-07-29T01:12:30;24.90;43.80
32815;DHT22;19165;48.182;16.374;2022-07-29T01:15:00;24.90;44.10
32815;DHT22;19165;48.182;16.374;2022-07-29T01:17:28;24.90;44.10
32815;DHT22;19165;48.182;16.374;2022-07-29T01:20:02;25.00;43.90
32815;DHT22;19165;48.182;16.374;2022-07-29T01:22:37;24.90;44.10
32815;DHT22;19165;48.182;16.374;2022-07-29T01:25:20;24.80;44.20
32815;DHT22;19165;48.182;16.374;2022-07-29T01:28:05;24.70;44.40
32815;DHT22;19165;48.182;16.374;2022-07-29T01:30:38;24.60;44.80
32815;DHT22;19165;48.182;16.374;2022-07-29T01:33:09;24.60;45.00
32815;DHT22;19165;48.182;16.374;2022-07-29T01:35:39;24.50;45.00
32815;DHT22;19165;48.182;16.374;2022-07-29T01:38:09;24.50;45.20
32815;DHT22;19165;48.182;16.374;2022-07-29T01:40:40;24.50;45.40
32815;DHT22;19165;48.182;16.374;2022-07-29T01:43:11;24.50;45.40
32815;DHT22;19165;48.182;16.374;2022-07-29T01:45:43;24.60;45.40
32815;DHT22;19165;48.182;16.374;2022-07-29T01:48:13;24.70;45.30
32815;DHT22;19165;48.182;16.374;2022-07-29T01:50:48;24.60;45.40
32815;DHT22;19165;48.182;16.374;2022-07-29T01:53:21;24.70;45.50
32815;DHT22;19165;48.182;16.374;2022-07-29T01:55:48;24.80;45.40
32815;DHT22;19165;48.182;16.374;2022-07-29T01:58:18;24.70;45.50
32815;DHT22;19165;48.182;16.374;2022-07-29T02:00:46;24.60;45.60
32815;DHT22;19165;48.182;16.374;2022-07-29T02:03:14;24.50;46.20
32815;DHT22;19165;48.182;16.374;2022-07-29T02:05:46;24.50;45.90
32815;DHT22;19165;48.182;16.374;2022-07-29T02:08:13;24.50;46.00
32815;DHT22;19165;48.182;16.374;2022-07-29T02:10:41;24.50;46.00
32815;DHT22;19165;48.182;16.374;2022-07-29T02:13:10;24.50;46.10
32815;DHT22;19165;48.182;16.374;2022-07-29T02:15:37;24.50;46.20
32815;DHT22;19165;48.182;16.374;2022-07-29T02:18:08;24.50;46.30
32815;DHT22;19165;48.182;16.374;2022-07-29T02:20:36;24.50;46.30
32815;DHT22;19165;48.182;16.374;2022-07-29T02:23:03;24.40;46.40
32815;DHT22;19165;48.182;16.374;2022-07-29T02:25:30;24.50;46.50
32815;DHT22;19165;48.182;16.374;2022-07-29T02:27:58;24.40;46.40
32815;DHT22;19165;48.182;16.374;2022-07-29T02:30:26;24.40;46.60
32815;DHT22;19165;48.182;16.374;2022-07-29T02:32:53;24.40;46.70
32815;DHT22;19165;48.182;16.374;2022-07-29T02:35:22;24.40;46.70
32815;DHT22;19165;48.182;16.374;2022-07-29T02:37:49;24.40;46.80
32815;DHT22;19165;48.182;16.374;2022-07-29T02:40:38;24.40;46.80
32815;DHT22;19165;48.182;16.374;2022-07-29T02:43:05;24.40;46.60
32815;DHT22;19165;48.182;16.374;2022-07-29T02:45:33;24.30;46.70
32815;DHT22;19165;48.182;16.374;2022-07-29T02:48:00;24.20;46.90
32815;DHT22;19165;48.182;16.374;2022-07-29T02:50:33;24.10;47.20
32815;DHT22;19165;48.182;16.374;2022-07-29T02:53:05;24.10;47.50
32815;DHT22;19165;48.182;16.374;2022-07-29T02:55:34;24.00;47.50
32815;DHT22;19165;48.182;16.374;2022-07-29T02:58:05;24.10;47.80
32815;DHT22;19165;48.182;16.374;2022-07-29T03:00:36;24.10;47.60
32815;DHT22;19165;48.182;16.374;2022-07-29T03:03:06;24.00;47.70
32815;DHT22;19165;48.182;16.374;2022-07-29T03:05:34;24.00;47.80
32815;DHT22;19165;48.182;16.374;2022-07-29T03:08:02;23.90;48.00
32815;DHT22;19165;48.182;16.374;2022-07-29T03:10:30;23.80;48.20
32815;DHT22;19165;48.182;16.374;2022-07-29T03:12:57;23.80;48.30
32815;DHT22;19165;48.182;16.374;2022-07-29T03:15:24;23.70;48.40
32815;DHT22;19165;48.182;16.374;2022-07-29T03:17:51;23.60;48.80
32815;DHT22;19165;48.182;16.374;2022-07-29T03:20:18;23.60;48.80
32815;DHT22;19165;48.182;16.374;2022-07-29T03:22:45;23.50;48.90
32815;DHT22;19165;48.182;16.374;2022-07-29T03:25:15;23.50;49.30
32815;DHT22;19165;48.182;16.374;2022-07-29T03:27:42;23.50;49.30
32815;DHT22;19165;48.182;16.374;2022-07-29T03:30:09;23.50;49.20
32815;DHT22;19165;48.182;16.374;2022-07-29T03:32:36;23.50;49.30
32815;DHT22;19165;48.182;16.374;2022-07-29T03:35:03;23.50;49.30
32815;DHT22;19165;48.182;16.374;2022-07-29T03:37:29;23.50;49.50
32815;DHT22;19165;48.182;16.374;2022-07-29T03:39:58;23.50;49.40
32815;DHT22;19165;48.182;16.374;2022-07-29T03:42:25;23.50;49.40
32815;DHT22;19165;48.182;16.374;2022-07-29T03:44:53;23.50;49.50
32815;DHT22;19165;48.182;16.374;2022-07-29T03:47:23;23.60;49.30
32815;DHT22;19165;48.182;16.374;2022-07-29T03:49:54;23.50;49.20
32815;DHT22;19165;48.182;16.374;2022-07-29T03:52:21;23.50;49.30
32815;DHT22;19165;48.182;16.374;2022-07-29T03:54:47;23.50;49.50
32815;DHT22;19165;48.182;16.374;2022-07-29T03:57:16;23.50;49.60
32815;DHT22;19165;48.182;16.374;2022-07-29T03:59:44;23.50;49.50
32815;DHT22;19165;48.182;16.374;2022-07-29T04:02:11;23.50;49.40
32815;DHT22;19165;48.182;16.374;2022-07-29T04:04:38;23.50;49.50
32815;DHT22;19165;48.182;16.374;2022-07-29T04:07:04;23.50;49.50
32815;DHT22;19165;48.182;16.374;2022-07-29T04:09:30;23.50;49.60
32815;DHT22;19165;48.182;16.374;2022-07-29T04:11:56;23.60;49.60
32815;DHT22;19165;48.182;16.374;2022-07-29T04:14:23;23.70;49.50
32815;DHT22;19165;48.182;16.374;2022-07-29T04:16:49;23.70;49.30
32815;DHT22;19165;48.182;16.374;2022-07-29T04:19:15;23.90;49.30
32815;DHT22;19165;48.182;16.374;2022-07-29T04:21:41;24.00;49.00
32815;DHT22;19165;48.182;16.374;2022-07-29T04:24:08;24.20;48.50
32815;DHT22;19165;48.182;16.374;2022-07-29T04:26:34;24.20;48.50
32815;DHT22;19165;48.182;16.374;2022-07-29T04:29:01;24.30;48.30
32815;DHT22;19165;48.182;16.374;2022-07-29T04:31:28;24.40;48.00
32815;DHT22;19165;48.182;16.374;2022-07-29T04:33:54;24.50;47.80
32815;DHT22;19165;48.182;16.374;2022-07-29T04:36:20;24.60;48.00
32815;DHT22;19165;48.182;16.374;2022-07-29T04:38:46;24.80;47.30
32815;DHT22;19165;48.182;16.374;2022-07-29T04:41:12;24.90;47.50
32815;DHT22;19165;48.182;16.374;2022-07-29T04:43:38;25.10;46.70
32815;DHT22;19165;48.182;16.374;2022-07-29T04:46:05;25.30;46.40
32815;DHT22;19165;48.182;16.374;2022-07-29T04:48:33;25.30;46.00
32815;DHT22;19165;48.182;16.374;2022-07-29T04:50:59;25.40;45.80
32815;DHT22;19165;48.182;16.374;2022-07-29T04:53:25;25.50;45.70
32815;DHT22;19165;48.182;16.374;2022-07-29T04:55:51;25.60;45.50
32815;DHT22;19165;48.182;16.374;2022-07-29T04:58:17;25.60;45.10
32815;DHT22;19165;48.182;16.374;2022-07-29T05:00:43;25.60;45.00
32815;DHT22;19165;48.182;16.374;2022-07-29T05:03:09;25.70;45.00
32815;DHT22;19165;48.182;16.374;2022-07-29T05:05:36;25.80;44.80
32815;DHT22;19165;48.182;16.374;2022-07-29T05:08:02;25.80;44.80
32815;DHT22;19165;48.182;16.374;2022-07-29T05:10:28;25.90;44.70
32815;DHT22;19165;48.182;16.374;2022-07-29T05:12:54;26.00;45.10
32815;DHT22;19165;48.182;16.374;2022-07-29T05:15:20;26.10;44.40
32815;DHT22;19165;48.182;16.374;2022-07-29T05:17:46;26.20;44.20
32815;DHT22;19165;48.182;16.374;2022-07-29T05:20:12;26.30;44.10
32815;DHT22;19165;48.182;16.374;2022-07-29T05:22:48;26.40;43.70
32815;DHT22;19165;48.182;16.374;2022-07-29T05:25:14;26.20;43.60
32815;DHT22;19165;48.182;16.374;2022-07-29T05:27:40;26.00;43.90
32815;DHT22;19165;48.182;16.374;2022-07-29T05:30:07;25.90;44.50
32815;DHT22;19165;48.182;16.374;2022-07-29T05:32:33;25.90;45.00
32815;DHT22;19165;48.182;16.374;2022-07-29T05:34:59;26.00;45.20
32815;DHT22;19165;48.182;16.374;2022-07-29T05:37:25;26.10;45.20
32815;DHT22;19165;48.182;16.374;2022-07-29T05:39:52;26.10;45.10
32815;DHT22;19165;48.182;16.374;2022-07-29T05:42:18;26.10;44.90
32815;DHT22;19165;48.182;16.374;2022-07-29T05:44:44;26.10;45.00
32815;DHT22;19165;48.182;16.374;2022-07-29T05:47:09;26.10;45.00
32815;DHT22;19165;48.182;16.374;2022-07-29T05:49:36;26.10;45.00
32815;DHT22;19165;48.182;16.374;2022-07-29T05:52:02;26.30;44.70
32815;DHT22;19165;48.182;16.374;2022-07-29T05:54:28;26.60;44.40
32815;DHT22;19165;48.182;16.374;2022-07-29T05:56:55;26.70;44.10
32815;DHT22;19165;48.182;16.374;2022-07-29T05:59:21;26.90;43.80
32815;DHT22;19165;48.182;16.374;2022-07-29T06:01:47;27.30;43.40
32815;DHT22;19165;48.182;16.374;2022-07-29T06:04:13;27.40;42.70
32815;DHT22;19165;48.182;16.374;2022-07-29T06:06:39;27.50;42.60
32815;DHT22;19165;48.182;16.374;2022-07-29T06:09:05;27.70;42.50
32815;DHT22;19165;48.182;16.374;2022-07-29T06:11:30;27.80;42.10
32815;DHT22;19165;48.182;16.374;2022-07-29T06:13:58;28.00;42.00
32815;DHT22;19165;48.182;16.374;2022-07-29T06:16:24;28.00;41.70
32815;DHT22;19165;48.182;16.374;2022-07-29T06:18:50;28.20;41.60
32815;DHT22;19165;48.182;16.374;2022-07-29T06:21:16;28.40;41.40
32815;DHT22;19165;48.182;16.374;2022-07-29T06:23:42;28.60;41.00
32815;DHT22;19165;48.182;16.374;2022-07-29T06:26:08;28.80;40.60
32815;DHT22;19165;48.182;16.374;2022-07-29T06:28:34;28.80;40.30
32815;DHT22;19165;48.182;16.374;2022-07-29T06:31:01;28.60;40.90
32815;DHT22;19165;48.182;16.374;2022-07-29T06:33:27;28.30;40.80
32815;DHT22;19165;48.182;16.374;2022-07-29T06:35:53;28.10;41.40
32815;DHT22;19165;48.182;16.374;2022-07-29T06:38:20;28.20;41.30
32815;DHT22;19165;48.182;16.374;2022-07-29T06:40:46;28.40;41.10
32815;DHT22;19165;48.182;16.374;2022-07-29T06:43:33;28.50;40.90
32815;DHT22;19165;48.182;16.374;2022-07-29T06:46:02;28.70;40.60
32815;DHT22;19165;48.182;16.374;2022-07-29T06:48:29;28.70;40.40
32815;DHT22;19165;48.182;16.374;2022-07-29T06:50:55;28.70;40.20
32815;DHT22;19165;48.182;16.374;2022-07-29T06:53:21;28.80;40.30
32815;DHT22;19165;48.182;16.374;2022-07-29T06:55:47;28.90;40.00
32815;DHT22;19165;48.182;16.374;2022-07-29T06:58:13;29.00;39.80
32815;DHT22;19165;48.182;16.374;2022-07-29T07:00:41;29.00;39.80
32815;DHT22;19165;48.182;16.374;2022-07-29T07:03:08;28.80;40.00
32815;DHT22;19165;48.182;16.374;2022-07-29T07:05:34;28.50;40.20
32815;DHT22;19165;48.182;16.374;2022-07-29T07:08:00;28.20;40.70
32815;DHT22;19165;48.182;16.374;2022-07-29T07:10:27;28.20;41.00
32815;DHT22;19165;48.182;16.374;2022-07-29T07:12:53;28.10;41.10
32815;DHT22;19165;48.182;16.374;2022-07-29T07:15:19;28.30;41.20
32815;DHT22;19165;48.182;16.374;2022-07-29T07:17:48;28.50;40.90
32815;DHT22;19165;48.182;16.374;2022-07-29T07:20:16;28.70;40.50
32815;DHT22;19165;48.182;16.374;2022-07-29T07:22:42;29.00;40.20
32815;DHT22;19165;48.182;16.374;2022-07-29T07:25:08;29.20;39.90
32815;DHT22;19165;48.182;16.374;2022-07-29T07:27:34;29.30;39.50
32815;DHT22;19165;48.182;16.374;2022-07-29T07:30:00;29.50;39.50
32815;DHT22;19165;48.182;16.374;2022-07-29T07:32:26;29.70;39.10
32815;DHT22;19165;48.182;16.374;2022-07-29T07:34:52;29.80;39.00
32815;DHT22;19165;48.182;16.374;2022-07-29T07:37:19;29.80;39.60
32815;DHT22;19165;48.182;16.374;2022-07-29T07:39:46;29.70;39.30
32815;DHT22;19165;48.182;16.374;2022-07-29T07:42:12;29.80;39.30
32815;DHT22;19165;48.182;16.374;2022-07-29T07:44:38;29.90;39.10
32815;DHT22;19165;48.182;16.374;2022-07-29T07:47:04;30.20;38.90
32815;DHT22;19165;48.182;16.374;2022-07-29T07:49:30;30.40;38.40
32815;DHT22;19165;48.182;16.374;2022-07-29T07:51:56;30.40;37.90
32815;DHT22;19165;48.182;16.374;2022-07-29T07:54:23;30.40;38.00
32815;DHT22;19165;48.182;16.374;2022-07-29T07:56:49;30.50;37.90
32815;DHT22;19165;48.182;16.374;2022-07-29T07:59:15;30.60;37.90
32815;DHT22;19165;48.182;16.374;2022-07-29T08:01:41;30.60;37.60
32815;DHT22;19165;48.182;16.374;2022-07-29T08:04:07;30.80;37.40
32815;DHT22;19165;48.182;16.374;2022-07-29T08:06:33;30.90;37.20
32815;DHT22;19165;48.182;16.374;2022-07-29T08:09:01;31.30;37.10
32815;DHT22;19165;48.182;16.374;2022-07-29T08:11:29;31.60;36.40
32815;DHT22;19165;48.182;16.374;2022-07-29T08:13:55;31.50;36.30
32815;DHT22;19165;48.182;16.374;2022-07-29T08:16:21;31.80;36.40
32815;DHT22;19165;48.182;16.374;2022-07-29T08:18:48;32.50;35.70
32815;DHT22;19165;48.182;16.374;2022-07-29T08:21:14;33.30;34.70
32815;DHT22;19165;48.182;16.374;2022-07-29T08:23:41;33.90;33.60
32815;DHT22;19165;48.182;16.374;2022-07-29T08:26:12;34.00;33.00
32815;DHT22;19165;48.182;16.374;2022-07-29T08:28:42;33.90;33.00
32815;DHT22;19165;48.182;16.374;2022-07-29T08:31:11;34.20;33.10
32815;DHT22;19165;48.182;16.374;2022-07-29T08:33:38;34.80;32.40
32815;DHT22;19165;48.182;16.374;2022-07-29T08:36:05;35.10;31.50
32815;DHT22;19165;48.182;16.374;2022-07-29T08:38:31;34.80;31.60
32815;DHT22;19165;48.182;16.374;2022-07-29T08:40:57;34.40;32.10
32815;DHT22;19165;48.182;16.374;2022-07-29T08:43:24;34.60;32.20
32815;DHT22;19165;48.182;16.374;2022-07-29T08:45:52;35.10;31.80
32815;DHT22;19165;48.182;16.374;2022-07-29T08:48:19;35.40;31.00
32815;DHT22;19165;48.182;16.374;2022-07-29T08:50:47;35.60;31.00
32815;DHT22;19165;48.182;16.374;2022-07-29T08:53:15;36.10;30.40
32815;DHT22;19165;48.182;16.374;2022-07-29T08:55:42;36.30;30.00
32815;DHT22;19165;48.182;16.374;2022-07-29T08:58:09;36.70;29.80
32815;DHT22;19165;48.182;16.374;2022-07-29T09:00:36;36.90;29.30
32815;DHT22;19165;48.182;16.374;2022-07-29T09:03:04;36.90;29.10
32815;DHT22;19165;48.182;16.374;2022-07-29T09:05:31;36.30;29.50
32815;DHT22;19165;48.182;16.374;2022-07-29T09:07:58;36.10;29.70
32815;DHT22;19165;48.182;16.374;2022-07-29T09:10:25;36.20;29.80
32815;DHT22;19165;48.182;16.374;2022-07-29T09:12:51;36.60;29.50
32815;DHT22;19165;48.182;16.374;2022-07-29T09:15:18;36.90;29.00
32815;DHT22;19165;48.182;16.374;2022-07-29T09:17:45;36.90;28.70
32815;DHT22;19165;48.182;16.374;2022-07-29T09:20:15;36.40;29.20
32815;DHT22;19165;48.182;16.374;2022-07-29T09:22:41;36.30;29.30
32815;DHT22;19165;48.182;16.374;2022-07-29T09:25:07;36.50;29.00
32815;DHT22;19165;48.182;16.374;2022-07-29T09:27:34;36.40;29.30
32815;DHT22;19165;48.182;16.374;2022-07-29T09:30:02;36.90;29.00
32815;DHT22;19165;48.182;16.374;2022-07-29T09:32:29;37.60;28.60
32815;DHT22;19165;48.182;16.374;2022-07-29T09:35:18;38.20;27.60
32815;DHT22;19165;48.182;16.374;2022-07-29T09:37:45;37.70;27.70
32815;DHT22;19165;48.182;16.374;2022-07-29T09:40:13;37.20;28.10
32815;DHT22;19165;48.182;16.374;2022-07-29T09:42:39;37.00;28.30
32815;DHT22;19165;48.182;16.374;2022-07-29T09:45:05;36.50;28.60
32815;DHT22;19165;48.182;16.374;2022-07-29T09:47:41;36.30;28.90
32815;DHT22;19165;48.182;16.374;2022-07-29T09:50:08;36.40;29.20
32815;DHT22;19165;48.182;16.374;2022-07-29T09:52:45;36.80;28.90
32815;DHT22;19165;48.182;16.374;2022-07-29T09:55:12;37.00;28.60
32815;DHT22;19165;48.182;16.374;2022-07-29T09:57:38;37.10;28.40
32815;DHT22;19165;48.182;16.374;2022-07-29T10:00:07;36.90;28.50
32815;DHT22;19165;48.182;16.374;2022-07-29T10:02:41;36.40;28.70
32815;DHT22;19165;48.182;16.374;2022-07-29T10:05:18;35.90;29.30
32815;DHT22;19165;48.182;16.374;2022-07-29T10:07:47;35.80;29.80
32815;DHT22;19165;48.182;16.374;2022-07-29T10:10:20;36.00;30.00
32815;DHT22;19165;48.182;16.374;2022-07-29T10:12:49;36.30;29.90
32815;DHT22;19165;48.182;16.374;2022-07-29T10:15:16;36.80;29.30
32815;DHT22;19165;48.182;16.374;2022-07-29T10:17:42;37.00;29.50
32815;DHT22;19165;48.182;16.374;2022-07-29T10:20:10;37.50;28.90
32815;DHT22;19165;48.182;16.374;2022-07-29T10:22:36;37.90;28.50
32815;DHT22;19165;48.182;16.374;2022-07-29T10:25:04;38.10;28.40
32815;DHT22;19165;48.182;16.374;2022-07-29T10:27:30;38.80;28.30
32815;DHT22;19165;48.182;16.374;2022-07-29T10:29:56;40.80;27.30
32815;DHT22;19165;48.182;16.374;2022-07-29T10:32:34;43.10;25.60
32815;DHT22;19165;48.182;16.374;2022-07-29T10:35:21;45.10;23.80
32815;DHT22;19165;48.182;16.374;2022-07-29T10:38:02;46.40;22.40
32815;DHT22;19165;48.182;16.374;2022-07-29T10:40:41;46.10;22.00
32815;DHT22;19165;48.182;16.374;2022-07-29T10:43:32;44.80;22.40
32815;DHT22;19165;48.182;16.374;2022-07-29T10:46:02;43.50;23.10
32815;DHT22;19165;48.182;16.374;2022-07-29T10:48:28;42.60;23.80
32815;DHT22;19165;48.182;16.374;2022-07-29T10:50:56;41.90;24.30
32815;DHT22;19165;48.182;16.374;2022-07-29T10:53:23;41.30;24.70
32815;DHT22;19165;48.182;16.374;2022-07-29T10:55:51;40.90;25.10
32815;DHT22;19165;48.182;16.374;2022-07-29T10:58:19;40.80;25.20
32815;DHT22;19165;48.182;16.374;2022-07-29T11:00:46;40.80;25.30
32815;DHT22;19165;48.182;16.374;2022-07-29T11:03:42;41.40;24.90
32815;DHT22;19165;48.182;16.374;2022-07-29T11:06:10;41.20;24.80
32815;DHT22;19165;48.182;16.374;2022-07-29T11:08:36;40.80;25.00
32815;DHT22;19165;48.182;16.374;2022-07-29T11:11:36;40.40;25.40
32815;DHT22;19165;48.182;16.374;2022-07-29T11:14:02;39.70;25.90
32815;DHT22;19165;48.182;16.374;2022-07-29T11:16:58;39.30;26.30
32815;DHT22;19165;48.182;16.374;2022-07-29T11:19:25;38.90;26.50
32815;DHT22;19165;48.182;16.374;2022-07-29T11:21:51;38.80;26.70
32815;DHT22;19165;48.182;16.374;2022-07-29T11:24:20;38.90;26.80
32815;DHT22;19165;48.182;16.374;2022-07-29T11:27:16;39.00;26.70
32815;DHT22;19165;48.182;16.374;2022-07-29T11:29:53;38.80;26.80
32815;DHT22;19165;48.182;16.374;2022-07-29T11:32:20;38.40;27.00
32815;DHT22;19165;48.182;16.374;2022-07-29T11:34:48;38.30;27.10
32815;DHT22;19165;48.182;16.374;2022-07-29T11:37:19;38.50;27.10
32815;DHT22;19165;48.182;16.374;2022-07-29T11:39:47;39.00;27.00
32815;DHT22;19165;48.182;16.374;2022-07-29T11:42:42;39.90;26.30
32815;DHT22;19165;48.182;16.374;2022-07-29T11:45:11;41.00;25.40
32815;DHT22;19165;48.182;16.374;2022-07-29T11:47:46;41.80;24.70
32815;DHT22;19165;48.182;16.374;2022-07-29T11:50:14;42.40;24.40
32815;DHT22;19165;48.182;16.374;2022-07-29T11:52:44;43.50;23.60
32815;DHT22;19165;48.182;16.374;2022-07-29T11:55:13;44.40;22.90
32815;DHT22;19165;48.182;16.374;2022-07-29T11:57:48;45.10;22.40
32815;DHT22;19165;48.182;16.374;2022-07-29T12:00:25;45.50;21.90
32815;DHT22;19165;48.182;16.374;2022-07-29T12:02:51;46.20;21.70
32815;DHT22;19165;48.182;16.374;2022-07-29T12:05:18;47.10;21.10
32815;DHT22;19165;48.182;16.374;2022-07-29T12:07:45;47.70;20.80
32815;DHT22;19165;48.182;16.374;2022-07-29T12:10:11;48.50;20.40
32815;DHT22;19165;48.182;16.374;2022-07-29T12:12:37;49.10;19.80
32815;DHT22;19165;48.182;16.374;2022-07-29T12:15:16;49.50;19.70
32815;DHT22;19165;48.182;16.374;2022-07-29T12:17:43;50.60;19.20
32815;DHT22;19165;48.182;16.374;2022-07-29T12:20:09;51.40;18.80
32815;DHT22;19165;48.182;16.374;2022-07-29T12:22:38;52.20;18.50
32815;DHT22;19165;48.182;16.374;2022-07-29T12:25:07;52.80;17.90
32815;DHT22;19165;48.182;16.374;2022-07-29T12:27:33;52.70;17.90
32815;DHT22;19165;48.182;16.374;2022-07-29T12:30:01;52.80;18.00
32815;DHT22;19165;48.182;16.374;2022-07-29T12:32:33;53.30;17.70
32815;DHT22;19165;48.182;16.374;2022-07-29T12:35:01;52.60;17.70
32815;DHT22;19165;48.182;16.374;2022-07-29T12:37:27;51.10;18.10
32815;DHT22;19165;48.182;16.374;2022-07-29T12:39:53;49.40;18.90
32815;DHT22;19165;48.182;16.374;2022-07-29T12:42:19;47.80;19.70
32815;DHT22;19165;48.182;16.374;2022-07-29T12:44:47;46.70;20.40
32815;DHT22;19165;48.182;16.374;2022-07-29T12:47:13;46.20;20.80
32815;DHT22;19165;48.182;16.374;2022-07-29T12:49:41;45.70;21.10
32815;DHT22;19165;48.182;16.374;2022-07-29T12:52:34;44.80;21.50
32815;DHT22;19165;48.182;16.374;2022-07-29T12:55:00;43.70;22.30
32815;DHT22;19165;48.182;16.374;2022-07-29T12:57:26;42.60;23.00
32815;DHT22;19165;48.182;16.374;2022-07-29T13:00:01;41.80;23.50
32815;DHT22;19165;48.182;16.374;2022-07-29T13:02:27;41.50;24.00
32815;DHT22;19165;48.182;16.374;2022-07-29T13:04:58;40.90;24.30
32815;DHT22;19165;48.182;16.374;2022-07-29T13:07:25;40.20;24.70
32815;DHT22;19165;48.182;16.374;2022-07-29T13:09:53;39.70;25.60
32815;DHT22;19165;48.182;16.374;2022-07-29T13:12:19;39.30;25.60
32815;DHT22;19165;48.182;16.374;2022-07-29T13:14:47;38.80;26.00
32815;DHT22;19165;48.182;16.374;2022-07-29T13:17:15;38.40;26.50
32815;DHT22;19165;48.182;16.374;2022-07-29T13:19:42;37.90;26.80
32815;DHT22;19165;48.182;16.374;2022-07-29T13:22:10;37.40;27.30
32815;DHT22;19165;48.182;16.374;2022-07-29T13:24:50;37.00;27.80
32815;DHT22;19165;48.182;16.374;2022-07-29T13:27:16;36.50;28.30
32815;DHT22;19165;48.182;16.374;2022-07-29T13:29:42;36.10;29.20
32815;DHT22;19165;48.182;16.374;2022-07-29T13:32:09;35.70;29.10
32815;DHT22;19165;48.182;16.374;2022-07-29T13:34:35;35.40;29.40
32815;DHT22;19165;48.182;16.374;2022-07-29T13:37:00;35.10;30.00
32815;DHT22;19165;48.182;16.374;2022-07-29T13:39:28;34.80;30.70
32815;DHT22;19165;48.182;16.374;2022-07-29T13:41:54;34.50;31.40
32815;DHT22;19165;48.182;16.374;2022-07-29T13:44:20;34.20;32.00
32815;DHT22;19165;48.182;16.374;2022-07-29T13:46:46;33.90;32.60
32815;DHT22;19165;48.182;16.374;2022-07-29T13:49:11;33.60;33.30
32815;DHT22;19165;48.182;16.374;2022-07-29T13:51:37;33.20;34.20
32815;DHT22;19165;48.182;16.374;2022-07-29T13:54:03;32.70;36.80
32815;DHT22;19165;48.182;16.374;2022-07-29T13:56:31;32.30;36.90
32815;DHT22;19165;48.182;16.374;2022-07-29T13:58:57;32.00;37.70
32815;DHT22;19165;48.182;16.374;2022-07-29T14:01:23;31.40;38.40
32815;DHT22;19165;48.182;16.374;2022-07-29T14:03:49;30.80;40.50
32815;DHT22;19165;48.182;16.374;2022-07-29T14:06:15;30.20;41.70
32815;DHT22;19165;48.182;16.374;2022-07-29T14:08:41;29.90;43.20
32815;DHT22;19165;48.182;16.374;2022-07-29T14:11:07;29.40;45.10
32815;DHT22;19165;48.182;16.374;2022-07-29T14:13:34;28.80;46.20
32815;DHT22;19165;48.182;16.374;2022-07-29T14:16:00;28.30;48.50
32815;DHT22;19165;48.182;16.374;2022-07-29T14:18:26;28.00;49.00
32815;DHT22;19165;48.182;16.374;2022-07-29T14:20:52;27.60;50.70
32815;DHT22;19165;48.182;16.374;2022-07-29T14:23:18;27.20;51.70
32815;DHT22;19165;48.182;16.374;2022-07-29T14:25:44;26.80;53.60
32815;DHT22;19165;48.182;16.374;2022-07-29T14:28:10;26.50;54.40
32815;DHT22;19165;48.182;16.374;2022-07-29T14:30:37;26.30;55.40
32815;DHT22;19165;48.182;16.374;2022-07-29T14:33:03;26.20;57.20
32815;DHT22;19165;48.182;16.374;2022-07-29T14:35:29;26.00;58.40
32815;DHT22;19165;48.182;16.374;2022-07-29T14:37:55;25.90;58.70
32815;DHT22;19165;48.182;16.374;2022-07-29T14:40:21;25.80;59.50
32815;DHT22;19165;48.182;16.374;2022-07-29T14:42:47;25.70;61.60
32815;DHT22;19165;48.182;16.374;2022-07-29T14:45:13;25.60;63.40
32815;DHT22;19165;48.182;16.374;2022-07-29T14:47:41;25.50;64.00
32815;DHT22;19165;48.182;16.374;2022-07-29T14:50:07;25.50;64.90
32815;DHT22;19165;48.182;16.374;2022-07-29T14:52:34;25.50;64.80
32815;DHT22;19165;48.182;16.374;2022-07-29T14:55:00;25.50;65.00
32815;DHT22;19165;48.182;16.374;2022-07-29T14:57:26;25.70;65.40
32815;DHT22;19165;48.182;16.374;2022-07-29T14:59:52;25.90;65.00
32815;DHT22;19165;48.182;16.374;2022-07-29T15:02:18;26.10;64.40
32815;DHT22;19165;48.182;16.374;2022-07-29T15:04:45;26.30;63.10
32815;DHT22;19165;48.182;16.374;2022-07-29T15:07:13;26.60;62.60
32815;DHT22;19165;48.182;16.374;2022-07-29T15:09:40;26.90;61.60
32815;DHT22;19165;48.182;16.374;2022-07-29T15:12:06;27.10;61.60
32815;DHT22;19165;48.182;16.374;2022-07-29T15:14:32;27.50;60.40
32815;DHT22;19165;48.182;16.374;2022-07-29T15:16:58;27.80;58.90
32815;DHT22;19165;48.182;16.374;2022-07-29T15:19:24;28.10;58.20
32815;DHT22;19165;48.182;16.374;2022-07-29T15:21:52;28.20;56.80